createdAt,value
2023-04-11T00:00:59.538Z,7.90
2023-04-11T00:03:53.145Z,7.88
2023-04-11T00:06:45.447Z,7.88
2023-04-11T00:09:37.667Z,7.87
2023-04-11T00:12:29.711Z,7.86
2023-04-11T00:15:24.249Z,7.85
2023-04-11T00:18:17.002Z,7.85
2023-04-11T00:21:11.324Z,7.82
2023-04-11T00:24:01.751Z,7.81
2023-04-11T00:26:53.777Z,7.76
2023-04-11T00:29:46.007Z,7.66
2023-04-11T00:32:38.164Z,7.58
2023-04-11T00:35:30.410Z,7.53
2023-04-11T00:38:22.401Z,7.51
2023-04-11T00:41:14.461Z,7.45
2023-04-11T00:44:07.133Z,7.29
2023-04-11T00:46:59.501Z,7.23
2023-04-11T00:49:51.502Z,7.31
2023-04-11T00:52:46.252Z,7.32
2023-04-11T00:55:38.335Z,7.37
2023-04-11T00:58:30.536Z,7.41
2023-04-11T01:01:25.005Z,7.46
2023-04-11T01:04:17.826Z,7.49
2023-04-11T01:07:11.597Z,7.51
2023-04-11T01:10:05.640Z,7.44
2023-04-11T01:12:59.990Z,7.40
2023-04-11T01:15:51.996Z,7.37
2023-04-11T01:18:44.248Z,7.29
2023-04-11T01:21:37.802Z,7.17
2023-04-11T01:24:30.063Z,6.93
2023-04-11T01:27:22.354Z,6.80
2023-04-11T01:30:15.062Z,6.71
2023-04-11T01:33:07.325Z,6.65
2023-04-11T01:35:59.627Z,6.70
2023-04-11T01:38:51.644Z,6.78
2023-04-11T01:41:44.799Z,6.83
2023-04-11T01:44:37.615Z,6.90
2023-04-11T01:47:29.795Z,6.96
2023-04-11T01:50:21.883Z,7.06
2023-04-11T01:53:13.848Z,7.16
2023-04-11T01:56:06.556Z,7.20
2023-04-11T01:58:59.309Z,7.25
2023-04-11T02:01:51.448Z,7.26
2023-04-11T02:04:43.447Z,7.26
2023-04-11T02:07:35.641Z,7.27
2023-04-11T02:10:27.622Z,7.28
2023-04-11T02:13:19.894Z,7.27
2023-04-11T02:16:15.227Z,7.29
2023-04-11T02:19:07.473Z,7.26
2023-04-11T02:21:59.459Z,7.23
2023-04-11T02:24:52.033Z,7.26
2023-04-11T02:27:44.034Z,7.27
2023-04-11T02:30:36.033Z,7.26
2023-04-11T02:33:28.222Z,7.25
2023-04-11T02:36:20.194Z,7.31
2023-04-11T02:39:12.228Z,7.34
2023-04-11T02:42:04.300Z,7.34
2023-04-11T02:44:57.826Z,7.37
2023-04-11T02:47:49.892Z,7.34
2023-04-11T02:50:41.840Z,7.31
2023-04-11T02:53:33.908Z,7.28
2023-04-11T02:56:26.015Z,7.23
2023-04-11T02:59:17.994Z,7.16
2023-04-11T03:02:10.082Z,7.13
2023-04-11T03:05:04.128Z,7.06
2023-04-11T03:07:57.738Z,7.04
2023-04-11T03:10:49.744Z,7.01
2023-04-11T03:13:41.728Z,7.02
2023-04-11T03:16:33.788Z,7.03
2023-04-11T03:19:25.908Z,7.03
2023-04-11T03:22:18.180Z,7.03
2023-04-11T03:25:11.686Z,7.07
2023-04-11T03:28:03.689Z,7.08
2023-04-11T03:30:56.616Z,7.06
2023-04-11T03:33:48.951Z,7.00
2023-04-11T03:36:40.934Z,6.97
2023-04-11T03:39:15.496Z,6.92
2023-04-11T03:42:07.729Z,6.92
2023-04-11T03:44:59.830Z,6.98
2023-04-11T03:47:51.845Z,6.99
2023-04-11T03:50:44.042Z,7.01
2023-04-11T03:53:36.104Z,7.00
2023-04-11T03:56:28.207Z,7.06
2023-04-11T03:59:20.957Z,7.11
2023-04-11T04:01:55.801Z,7.13
2023-04-11T04:04:55.070Z,7.15
2023-04-11T04:07:47.179Z,7.22
2023-04-11T04:10:39.148Z,7.24
2023-04-11T04:13:31.194Z,7.21
2023-04-11T04:16:23.278Z,7.13
2023-04-11T04:19:05.770Z,7.08
2023-04-11T04:21:58.631Z,7.02
2023-04-11T04:24:54.082Z,7.00
2023-04-11T04:27:46.707Z,7.02
2023-04-11T04:30:39.015Z,6.98
2023-04-11T04:33:32.950Z,6.98
2023-04-11T04:36:25.168Z,7.00
2023-04-11T04:39:19.190Z,7.00
2023-04-11T04:42:11.150Z,6.86
2023-04-11T04:45:03.300Z,6.76
2023-04-11T04:47:55.334Z,6.75
2023-04-11T04:50:47.360Z,6.77
2023-04-11T04:53:39.578Z,6.71
2023-04-11T04:56:32.204Z,6.70
2023-04-11T04:59:24.140Z,6.78
2023-04-11T05:02:17.221Z,6.83
2023-04-11T05:05:11.807Z,6.95
2023-04-11T05:08:04.111Z,6.99
2023-04-11T05:10:56.058Z,7.04
2023-04-11T05:13:47.997Z,7.07
2023-04-11T05:16:42.175Z,7.14
2023-04-11T05:19:33.149Z,7.05
2023-04-11T05:22:25.154Z,7.00
2023-04-11T05:25:17.964Z,7.00
2023-04-11T05:28:09.981Z,7.08
2023-04-11T05:31:02.553Z,7.14
2023-04-11T05:33:54.772Z,7.23
2023-04-11T05:36:47.777Z,7.32
2023-04-11T05:39:39.764Z,7.35
2023-04-11T05:42:31.835Z,7.55
2023-04-11T05:45:23.875Z,7.67
2023-04-11T05:48:16.399Z,7.88
2023-04-11T05:51:08.791Z,8.04
2023-04-11T05:54:00.855Z,8.16
2023-04-11T05:56:52.795Z,8.27
2023-04-11T05:59:44.802Z,8.41
2023-04-11T06:02:37.082Z,8.59
2023-04-11T06:05:31.412Z,9.00
2023-04-11T06:08:22.303Z,9.66
2023-04-11T06:11:14.415Z,10.46
2023-04-11T06:14:06.574Z,11.21
2023-04-11T06:16:58.639Z,11.86
2023-04-11T06:19:50.608Z,12.53
2023-04-11T06:22:42.612Z,13.13
2023-04-11T06:25:34.642Z,13.52
2023-04-11T06:28:27.105Z,13.58
2023-04-11T06:31:19.364Z,13.55
2023-04-11T06:34:11.884Z,13.33
2023-04-11T06:37:03.941Z,13.17
2023-04-11T06:39:55.946Z,12.92
2023-04-11T06:42:48.053Z,12.72
2023-04-11T06:45:40.031Z,12.57
2023-04-11T06:48:32.051Z,12.30
2023-04-11T06:51:24.013Z,12.01
2023-04-11T06:54:01.135Z,11.87
2023-04-11T06:56:53.276Z,11.73
2023-04-11T06:59:45.479Z,11.73
2023-04-11T07:02:39.371Z,11.52
2023-04-11T07:05:31.519Z,11.30
2023-04-11T07:08:23.622Z,11.11
2023-04-11T07:11:15.706Z,11.07
2023-04-11T07:14:07.774Z,11.08
2023-04-11T07:17:00.334Z,11.12
2023-04-11T07:19:52.287Z,11.19
2023-04-11T07:22:46.971Z,11.29
2023-04-11T07:25:39.489Z,11.37
2023-04-11T07:28:32.190Z,11.57
2023-04-11T07:31:25.114Z,11.81
2023-04-11T07:34:17.432Z,12.01
2023-04-11T07:37:09.406Z,12.10
2023-04-11T07:40:01.840Z,12.16
2023-04-11T07:42:54.121Z,12.23
2023-04-11T07:45:46.197Z,12.37
2023-04-11T07:48:38.198Z,12.49
2023-04-11T07:51:31.164Z,12.60
2023-04-11T07:54:25.289Z,12.70
2023-04-11T07:57:17.353Z,12.82
2023-04-11T08:00:19.546Z,13.04
2023-04-11T08:03:13.413Z,13.24
2023-04-11T08:06:05.790Z,13.41
2023-04-11T08:09:00.779Z,13.56
2023-04-11T08:11:52.779Z,13.64
2023-04-11T08:14:44.768Z,13.61
2023-04-11T08:17:38.474Z,13.57
2023-04-11T08:20:30.866Z,13.49
2023-04-11T08:23:30.771Z,13.31
2023-04-11T08:26:05.861Z,13.27
2023-04-11T08:28:57.998Z,13.34
2023-04-11T08:31:50.231Z,13.54
2023-04-11T08:34:42.135Z,13.83
2023-04-11T08:37:34.429Z,14.18
2023-04-11T08:40:27.110Z,14.65
2023-04-11T08:43:19.788Z,15.08
2023-04-11T08:46:13.115Z,15.36
2023-04-11T08:49:05.423Z,15.84
2023-04-11T08:51:58.090Z,16.71
2023-04-11T08:54:55.209Z,17.80
2023-04-11T08:57:38.118Z,18.48
2023-04-11T09:00:32.363Z,19.39
2023-04-11T09:03:24.684Z,20.24
2023-04-11T09:06:17.899Z,21.00
2023-04-11T09:09:28.801Z,21.31
2023-04-11T09:12:29.622Z,21.54
2023-04-11T09:15:24.197Z,21.11
2023-04-11T09:18:33.999Z,20.84
2023-04-11T09:21:28.156Z,20.62
2023-04-11T09:24:18.658Z,20.32
2023-04-11T09:27:15.768Z,20.21
2023-04-11T09:29:56.583Z,20.27
2023-04-11T09:33:01.173Z,20.13
2023-04-11T09:35:54.605Z,19.72
2023-04-11T09:38:46.744Z,19.31
2023-04-11T09:41:38.958Z,19.18
2023-04-11T09:44:40.916Z,19.14
2023-04-11T09:47:35.887Z,19.07
2023-04-11T09:50:28.901Z,19.22
2023-04-11T09:53:21.098Z,19.44
2023-04-11T09:56:13.498Z,19.97
2023-04-11T09:59:06.193Z,20.58
2023-04-11T10:02:00.504Z,21.06
2023-04-11T10:04:54.717Z,21.84
2023-04-11T10:07:53.958Z,22.41
2023-04-11T10:10:46.738Z,22.87
2023-04-11T10:13:43.032Z,23.20
2023-04-11T10:16:35.120Z,23.65
2023-04-11T10:19:27.284Z,23.76
2023-04-11T10:22:01.984Z,23.77
2023-04-11T10:25:20.271Z,23.62
2023-04-11T10:28:52.182Z,23.42
2023-04-11T10:32:13.169Z,23.89
2023-04-11T10:35:29.899Z,24.32
2023-04-11T10:38:51.060Z,24.04
2023-04-11T10:41:43.229Z,23.47
2023-04-11T10:44:35.310Z,23.24
2023-04-11T10:47:28.963Z,22.97
2023-04-11T10:50:42.203Z,22.74
2023-04-11T10:53:38.475Z,22.27
2023-04-11T10:56:59.398Z,22.01
2023-04-11T11:00:01.645Z,22.38
2023-04-11T11:02:54.078Z,22.82
2023-04-11T11:05:46.971Z,23.18
2023-04-11T11:08:41.469Z,23.04
2023-04-11T11:11:33.663Z,22.79
2023-04-11T11:14:31.761Z,22.46
2023-04-11T11:17:23.896Z,22.07
2023-04-11T11:20:20.981Z,21.68
2023-04-11T11:23:13.082Z,21.35
2023-04-11T11:26:05.234Z,20.79
2023-04-11T11:28:57.567Z,20.57
2023-04-11T11:31:49.885Z,20.39
2023-04-11T11:34:41.858Z,20.22
2023-04-11T11:37:33.989Z,20.24
2023-04-11T11:40:26.252Z,20.30
2023-04-11T11:43:18.343Z,20.23
2023-04-11T11:46:14.327Z,20.31
2023-04-11T11:49:09.845Z,20.40
2023-04-11T11:52:02.117Z,20.52
2023-04-11T11:54:54.192Z,20.55
2023-04-11T11:57:48.232Z,20.58
2023-04-11T12:00:41.564Z,20.61
2023-04-11T12:03:38.135Z,20.64
2023-04-11T12:06:33.620Z,20.73
2023-04-11T12:09:33.505Z,20.82
2023-04-11T12:12:25.649Z,20.79
2023-04-11T12:15:19.249Z,20.69
2023-04-11T12:18:11.499Z,20.55
2023-04-11T12:21:03.954Z,20.31
2023-04-11T12:23:56.180Z,20.03
2023-04-11T12:27:05.448Z,20.04
2023-04-11T12:29:41.841Z,20.11
2023-04-11T12:32:34.868Z,20.06
2023-04-11T12:35:26.994Z,20.00
2023-04-11T12:38:19.061Z,20.07
2023-04-11T12:41:31.128Z,20.14
2023-04-11T12:44:23.173Z,20.14
2023-04-11T12:47:15.440Z,19.98
2023-04-11T12:50:15.807Z,19.65
2023-04-11T12:53:07.835Z,19.45
2023-04-11T12:55:59.973Z,19.41
2023-04-11T12:58:52.083Z,19.29
2023-04-11T13:01:44.337Z,19.29
2023-04-11T13:04:36.720Z,19.34
2023-04-11T13:07:28.742Z,19.33
2023-04-11T13:10:20.918Z,19.30
2023-04-11T13:16:11.848Z,19.39
2023-04-11T13:19:03.948Z,19.46
2023-04-11T13:21:56.192Z,19.48
2023-04-11T13:24:48.236Z,19.42
2023-04-11T13:27:40.466Z,19.31
2023-04-11T13:30:21.089Z,19.04
2023-04-11T13:33:13.159Z,18.76
2023-04-11T13:36:05.626Z,18.63
2023-04-11T13:38:58.407Z,18.47
2023-04-11T13:41:50.696Z,18.38
2023-04-11T13:44:42.759Z,18.33
2023-04-11T13:47:36.893Z,18.29
2023-04-11T13:50:33.439Z,18.34
2023-04-11T13:53:25.490Z,18.30
2023-04-11T13:56:07.802Z,18.38
2023-04-11T13:58:59.850Z,18.49
2023-04-11T14:01:51.877Z,18.56
2023-04-11T14:04:45.071Z,18.57
2023-04-11T14:07:37.354Z,18.48
2023-04-11T14:10:29.409Z,18.44
2023-04-11T14:13:21.477Z,18.31
2023-04-11T14:16:08.732Z,18.21
2023-04-11T14:19:01.426Z,18.14
2023-04-11T14:21:53.493Z,18.02
2023-04-11T14:24:45.549Z,17.93
2023-04-11T14:27:38.153Z,17.85
2023-04-11T14:30:30.324Z,17.76
2023-04-11T14:33:22.485Z,17.68
2023-04-11T14:36:14.798Z,17.62
2023-04-11T14:39:07.329Z,17.52
2023-04-11T14:42:01.617Z,17.46
2023-04-11T14:45:46.294Z,17.42
2023-04-11T14:48:38.372Z,17.32
2023-04-11T14:51:31.228Z,17.18
2023-04-11T14:54:24.300Z,17.01
2023-04-11T14:57:16.321Z,16.90
2023-04-11T15:00:15.426Z,16.76
2023-04-11T15:03:07.736Z,16.61
2023-04-11T15:05:59.843Z,16.47
2023-04-11T15:08:52.381Z,16.35
2023-04-11T15:11:44.462Z,16.27
2023-04-11T15:14:36.406Z,16.23
2023-04-11T15:17:28.415Z,16.21
2023-04-11T15:20:20.925Z,16.08
2023-04-11T15:23:01.674Z,15.96
2023-04-11T15:25:56.886Z,15.81
2023-04-11T15:28:48.990Z,15.61
2023-04-11T15:31:41.167Z,15.35
2023-04-11T15:34:33.242Z,15.23
2023-04-11T15:37:25.878Z,15.06
2023-04-11T15:40:18.715Z,14.91
2023-04-11T15:43:11.002Z,14.83
2023-04-11T15:46:03.835Z,14.76
2023-04-11T15:48:55.837Z,14.70
2023-04-11T15:51:48.585Z,14.58
2023-04-11T15:54:40.791Z,14.43
2023-04-11T15:57:32.908Z,14.24
2023-04-11T16:00:27.239Z,14.10
2023-04-11T16:03:19.450Z,14.03
2023-04-11T16:06:12.039Z,13.97
2023-04-11T16:09:04.291Z,13.86
2023-04-11T16:11:56.706Z,13.71
2023-04-11T16:14:48.729Z,13.56
2023-04-11T16:17:40.920Z,13.47
2023-04-11T16:20:34.715Z,13.35
2023-04-11T16:23:26.888Z,13.18
2023-04-11T16:26:18.999Z,13.12
2023-04-11T16:29:11.123Z,13.04
2023-04-11T16:32:03.833Z,12.96
2023-04-11T16:34:57.704Z,12.89
2023-04-11T16:37:49.717Z,12.79
2023-04-11T16:40:41.728Z,12.73
2023-04-11T16:43:33.895Z,12.68
2023-04-11T16:46:26.245Z,12.63
2023-04-11T16:49:01.485Z,12.59
2023-04-11T16:51:53.485Z,12.54
2023-04-11T16:54:45.942Z,12.51
2023-04-11T16:57:38.017Z,12.44
2023-04-11T17:00:21.845Z,12.36
2023-04-11T17:03:13.924Z,12.27
2023-04-11T17:06:12.877Z,12.20
2023-04-11T17:09:06.746Z,12.12
2023-04-11T17:11:59.186Z,12.02
2023-04-11T17:14:52.537Z,11.88
2023-04-11T17:17:44.706Z,11.77
2023-04-11T17:20:36.770Z,11.66
2023-04-11T17:23:41.181Z,11.56
2023-04-11T17:26:34.534Z,11.45
2023-04-11T17:29:27.600Z,11.39
2023-04-11T17:32:19.878Z,11.42
2023-04-11T17:35:13.477Z,11.39
2023-04-11T17:38:05.646Z,11.38
2023-04-11T17:41:03.362Z,11.43
2023-04-11T17:44:05.608Z,11.39
2023-04-11T17:46:57.907Z,11.34
2023-04-11T17:49:49.726Z,11.34
2023-04-11T17:52:43.275Z,11.34
2023-04-11T17:55:35.340Z,11.28
2023-04-11T17:58:27.840Z,11.24
2023-04-11T18:01:19.938Z,11.19
2023-04-11T18:04:14.389Z,11.13
2023-04-11T18:07:07.657Z,11.04
2023-04-11T18:10:01.247Z,10.95
2023-04-11T18:12:55.336Z,10.90
2023-04-11T18:15:47.722Z,10.81
2023-04-11T18:18:40.096Z,10.76
2023-04-11T18:21:32.561Z,10.71
2023-04-11T18:24:24.720Z,10.67
2023-04-11T18:27:17.150Z,10.63
2023-04-11T18:30:13.588Z,10.58
2023-04-11T18:33:06.147Z,10.56
2023-04-11T18:35:58.354Z,10.51
2023-04-11T18:38:51.084Z,10.57
2023-04-11T18:41:44.351Z,10.59
2023-04-11T18:44:37.290Z,10.60
2023-04-11T18:47:29.643Z,10.63
2023-04-11T18:50:22.566Z,10.71
2023-04-11T18:53:14.557Z,10.73
2023-04-11T18:56:07.264Z,10.71
2023-04-11T18:58:45.597Z,10.67
2023-04-11T19:01:39.392Z,10.66
2023-04-11T19:04:31.911Z,10.61
2023-04-11T19:07:25.908Z,10.57
2023-04-11T19:10:18.063Z,10.49
2023-04-11T19:13:10.402Z,10.43
2023-04-11T19:16:02.761Z,10.38
2023-04-11T19:18:55.717Z,10.35
2023-04-11T19:21:48.787Z,10.33
2023-04-11T19:24:41.265Z,10.27
2023-04-11T19:27:34.741Z,10.18
2023-04-11T19:30:28.537Z,10.16
2023-04-11T19:33:20.702Z,10.12
2023-04-11T19:36:13.206Z,10.12
2023-04-11T19:39:06.278Z,10.14
2023-04-11T19:41:58.238Z,10.13
2023-04-11T19:44:50.180Z,10.17
2023-04-11T19:47:43.337Z,10.20
2023-04-11T19:50:35.973Z,10.26
2023-04-11T19:53:27.984Z,10.33
2023-04-11T19:56:20.227Z,10.32
2023-04-11T19:59:12.293Z,10.35
2023-04-11T20:02:04.315Z,10.35
2023-04-11T20:04:56.943Z,10.33
2023-04-11T20:07:49.370Z,10.30
2023-04-11T20:10:41.916Z,10.25
2023-04-11T20:13:35.987Z,10.22
2023-04-11T20:16:28.852Z,10.19
2023-04-11T20:19:22.141Z,10.15
2023-04-11T20:22:18.352Z,10.06
2023-04-11T20:25:11.743Z,9.98
2023-04-11T20:28:04.101Z,9.92
2023-04-11T20:30:56.135Z,9.91
2023-04-11T20:33:48.133Z,9.97
2023-04-11T20:36:40.085Z,9.95
2023-04-11T20:39:20.856Z,9.95
2023-04-11T20:42:00.999Z,9.98
2023-04-11T20:44:53.431Z,9.95
2023-04-11T20:47:47.521Z,9.93
2023-04-11T20:50:39.639Z,9.89
2023-04-11T20:53:31.713Z,9.84
2023-04-11T20:56:23.766Z,9.78
2023-04-11T20:59:16.114Z,9.75
2023-04-11T21:02:08.335Z,9.75
2023-04-11T21:05:00.393Z,9.74
2023-04-11T21:07:54.126Z,9.72
2023-04-11T21:10:46.171Z,9.65
2023-04-11T21:13:38.182Z,9.64
2023-04-11T21:16:30.246Z,9.71
2023-04-11T21:19:22.199Z,9.71
2023-04-11T21:22:14.612Z,9.73
2023-04-11T21:24:56.773Z,9.78
2023-04-11T21:27:49.844Z,9.81
2023-04-11T21:30:42.375Z,9.81
2023-04-11T21:33:34.413Z,9.81
2023-04-11T21:36:26.552Z,9.80
2023-04-11T21:39:18.574Z,9.76
2023-04-11T21:42:10.559Z,9.75
2023-04-11T21:45:02.585Z,9.72
2023-04-11T21:47:54.563Z,9.68
2023-04-11T21:50:46.797Z,9.64
2023-04-11T21:53:38.859Z,9.58
2023-04-11T21:56:30.864Z,9.50
2023-04-11T21:59:22.791Z,9.46
2023-04-11T22:02:17.062Z,9.52
2023-04-11T22:05:08.707Z,9.53
2023-04-11T22:08:11.927Z,9.49
2023-04-11T22:11:07.633Z,9.53
2023-04-11T22:14:00.947Z,9.57
2023-04-11T22:16:52.982Z,9.61
2023-04-11T22:19:45.014Z,9.63
2023-04-11T22:22:37.009Z,9.62
2023-04-11T22:25:29.486Z,9.61
2023-04-11T22:28:21.487Z,9.59
2023-04-11T22:31:13.694Z,9.53
2023-04-11T22:34:08.379Z,9.43
2023-04-11T22:37:00.407Z,9.33
2023-04-11T22:39:52.331Z,9.25
2023-04-11T22:42:46.875Z,9.18
2023-04-11T22:45:38.936Z,9.12
2023-04-11T22:48:31.403Z,9.09
2023-04-11T22:51:23.410Z,9.13
2023-04-11T22:54:15.674Z,9.15
2023-04-11T22:57:07.743Z,9.17
2023-04-11T23:00:02.894Z,9.17
2023-04-11T23:02:55.553Z,9.15
2023-04-11T23:05:47.515Z,9.12
2023-04-11T23:08:39.497Z,9.11
2023-04-11T23:11:31.918Z,9.12
2023-04-11T23:14:42.944Z,9.10
2023-04-11T23:17:34.948Z,9.00
2023-04-11T23:20:27.381Z,8.94
2023-04-11T23:23:19.742Z,8.89
2023-04-11T23:26:20.629Z,8.88
2023-04-11T23:29:13.258Z,8.85
2023-04-11T23:35:17.004Z,8.84
2023-04-11T23:38:07.806Z,8.91
2023-04-11T23:41:00.066Z,8.91
2023-04-11T23:43:52.289Z,8.94
2023-04-11T23:46:44.416Z,8.98
2023-04-11T23:49:36.518Z,8.97
2023-04-11T23:52:29.515Z,8.95
2023-04-11T23:55:22.450Z,8.91
2023-04-11T23:58:14.622Z,8.92
